EAST SUPERIOR NM NE Marquette, MI (45004)

Conditions for Wednesday

Daily
Weekly
Monthly
Marine Data Graph

Marine & Boating Location Search

Enter a coastal zip code for marine weather.

General Information

Location: 47.585 North -86.585 West
Buoy Type: 3-meter foam buoy
Buoy Hull: 3DV04
Payload: ARES payload
Owned by: NDBC
Windspeed: Measured by obtained from anemometer
Sea Surface: Measured by Intake

Weather and Wave Data

Time Temp Humidity Wind Dominant Wave Wind Wave Wave Swell Pressure
  Air
(°F)
Water
(°F)
  Dir Speed
(kts)
Speed
(mph)
Period
(sec)
Height
(ft)
Range
(ft)
Period
(sec)
Height
(ft)
Range
(ft)
Period
(sec)
Height
(ft)
Range
(ft)
Atmo.
(in)
Tend.
(in)
20:00 60 56 90 West 3.9 4.5 - - - - - - 29.91 -
20:10 59 56 95 West 3.9 4.5 - - - - - - 29.91 -
20:20 59 56 95 WSW 3.9 4.5 - - - - - - 29.91 -
20:30 59 56 95 West 3.9 4.5 - - - - - - 29.91 -
20:40 59 56 95 WSW 3.9 4.5 - - - - - - 29.91 -
20:50 59 56 96 WSW 3.9 4.5 3 1.31 exactly 1.3 3 1.64 0.82 - 2.46 - - - 29.91 -
21:10 59 56 97 West 5.8 6.7 - - - - - - 29.91 -
21:20 59 56 97 West 3.9 4.5 - - - - - - 29.92 -
21:30 59 56 96 West 3.9 4.5 - - - - - - 29.92 -
21:40 59 56 95 West 3.9 4.5 - - - - - - 29.92 -
21:50 59 56 97 West 5.8 6.7 3 0.98 exactly 1.0 3 1.64 0.82 - 2.46 - - - 29.93 -
22:00 59
-
96 West 5.8 6.7 - - - - - - 29.93 -
22:30 59 57 95 WNW 5.8 6.7 - - - - - - 29.93 -
22:50 60 57 91 WNW 7.8 8.9 4 0.98 exactly 1.0 4 1.64 0.82 - 2.46 - - - 29.92 -
23:00 60 57 91 NW 7.8 8.9 - - - - - - 29.93 -
23:10 59 57 96 NW 7.8 8.9 - - - - - - 29.93 -
23:20 60 57 92 WNW 7.8 8.9 - - - - - - 29.93 -
23:30 59 57 96 WNW 5.8 6.7 - - - - - - 29.93 -
23:40 59 57 95 WNW 5.8 6.7 - - - - - - 29.93 -
23:50 59 56 96 WNW 7.8 8.9 5 0.98 exactly 1.0 - - - - - - 29.93 -
00:10 59 57 96 WNW 7.8 8.9 - - - - - - 29.93 -
00:40 59 57 97 NW 9.7 11.2 - - - - - - 29.93 -
00:50 59 57 97 NW 9.7 11.2 5 0.98 exactly 1.0 - - - - - - 29.93 -
01:00 59 57 97 NW 9.7 11.2 - - - - - - 29.93 -
01:20 58 57 100 NW 7.8 8.9 - - - - - - 29.93 -
01:30 58 57 100 NW 5.8 6.7 - - - - - - 29.93 -
01:40 58 57 100 NW 7.8 8.9 - - - - - - 29.93 -
01:50 58 57 100 NW 7.8 8.9 5 0.98 exactly 1.0 - - - - - - 29.93 -
02:10 58 57 100 NW 5.8 6.7 - - - - - - 29.93 -
02:30 58 57 99 NW 5.8 6.7 - - - - - - 29.93 -
02:40 58 57 100 NW 7.8 8.9 - - - - - - 29.93 -
03:10 58 57 99 NW 7.8 8.9 - - - - - - 29.93 -
03:40 58 57 98 NW 5.8 6.7 - - - - - - 29.93 -
03:50 58 57 97 NW 3.9 4.5 0.66 exactly 0.7 - - - - - - 29.93 -
04:00 58 57 97 NNW 3.9 4.5 - - - - - - 29.93 -
04:30 58 57 98 NE 3.9 4.5 - - - - - - 29.93 -
04:40 58 57 100 NE 5.8 6.7 - - - - - - 29.93 -
04:50 58 56 100 North 5.8 6.7 0.66 exactly 0.7 - - - - - - 29.93 -
05:00 59 56 92 NNE 5.8 6.7 - - - - - - 29.93 -
05:10 57 56 97 NNE 1.9 2.2 - - - - - - 29.93 -
05:20 57 56 95 NE 1.9 2.2 - - - - - - 29.92 -
05:40 56 56 98 NE 1.9 2.2 - - - - - - 29.92 -
06:10 55 56 99 East 3.9 4.5 - - - - - - 29.92 -
06:20 55 56 98 ESE 5.8 6.7 - - - - - - 29.92 -
06:30 54 56 100 SE 5.8 6.7 - - - - - - 29.91 -
06:40 54 56 100 SE 5.8 6.7 - - - - - - 29.91 -
06:50 54 56 100 SE 5.8 6.7 0.66 exactly 0.7 - - - - - - 29.91 -
07:20 55 56 100 SSE 3.9 4.5 - - - - - - 29.90 -
07:30 56 56 99 SSW 1.9 2.2 - - - - - - 29.90 -
07:40 57 56 95 NNW 3.9 4.5 - - - - - - 29.89 -
07:50 59 56 85 North 3.9 4.5 0.66 exactly 0.7 - - - - - - 29.89 -
08:00 59 56 84 North 3.9 4.5 - - - - - - 29.89 -
08:40 59 55 82 NNW 3.9 4.5 - - - - - - 29.88 -
09:00 58 55 88 NNW 5.8 6.7 - - - - - - 29.89 -
09:40 58 55 87 WNW 9.7 11.2 - - - - - - 29.89 -
10:20 58 56 87 WSW 3.9 4.5 - - - - - - 29.90 -
10:30 58 56 88 SW 5.8 6.7 - - - - - - 29.91 -
10:40 58 56 88 SW 7.8 8.9 - - - - - - 29.91 -
11:10 58 56 88 West 9.7 11.2 - - - - - - 29.92 -
11:20 58 56 88 WNW 9.7 11.2 - - - - - - 29.92 -
11:40 58 56 87 WNW 7.8 8.9 - - - - - - 29.93 -
11:50 58 56 86 WNW 5.8 6.7 0.66 exactly 0.7 - - - - - - 29.93 -
12:20 58 56 88 WSW 7.8 8.9 - - - - - - 29.93 -
12:40 58 57 84 West 7.8 8.9 - - - - - - 29.94 -
13:30 58 56 86 WNW 13.6 15.7 - - - - - - 29.93 -
13:40 58 56 86 WNW 15.6 17.9 - - - - - - 29.93 -
13:50 58 56 84 WNW 15.6 17.9 3 1.31 exactly 1.3 3 1.64 0.82 - 2.46 - - - 29.93 -
14:00 58 56 83 WNW 15.6 17.9 - - - - - - 29.93 -
14:10 58 56 83 WNW 13.6 15.7 - - - - - - 29.93 -
14:20 58 56 83 WNW 13.6 15.7 - - - - - - 29.93 -
14:30 58 56 80 WNW 13.6 15.7 - - - - - - 29.94 -
14:40 58 56 80 WNW 11.7 13.4 - - - - - - 29.94 -
14:50 58 56 81 WNW 11.7 13.4 3 1.64 exactly 1.6 3 1.64 0.82 - 2.46 - - - 29.94 -
15:10 58 56 82 West 11.7 13.4 - - - - - - 29.94 -
15:20 58 56 83 West 11.7 13.4 - - - - - - 29.94 -
15:30 58 57 83 West 13.6 15.7 - - - - - - 29.94 -
15:50 58 57 83 WNW 13.6 15.7 3 1.64 exactly 1.6 3 1.64 0.82 - 2.46 - - - 29.95 -
16:00 58 57 84 WNW 13.6 15.7 - - - - - - 29.95 -
16:30 58 57 83 WNW 13.6 15.7 - - - - - - 29.95 -
17:20 59 57 74 WNW 13.6 15.7 - - - - - - 29.96 -
17:30 59 57 73 WNW 13.6 15.7 - - - - - - 29.95 -
17:50 59 58 72 WNW 13.6 15.7 4 1.97 exactly 2.0 4 1.64 0.82 - 2.46 - - - 29.96 -
18:10 59 58 69 WNW 15.6 17.9 - - - - - - 29.96 -
18:20 59 58 70 WNW 13.6 15.7 - - - - - - 29.96 -
18:30 59 58 70 WNW 13.6 15.7 - - - - - - 29.96 -
18:40 59 57 71 WNW 11.7 13.4 - - - - - - 29.96 -
19:30 58 58 80 WNW 9.7 11.2 - - - - - - 29.97 -
19:50 58 57 77 West 9.7 11.2 4 1.97 exactly 2.0 4 1.64 0.82 - 2.46 4 1.64 0.82 - 2.46 29.97 -
20:40 58 57 75 West 9.7 11.2 - - - - - - 29.98 -
20:50 58 57 76 West 9.7 11.2 5 1.97 exactly 2.0 4 1.64 0.82 - 2.46 5 1.64 0.82 - 2.46 29.98 -
21:10 58 57 75 WNW 11.7 13.4 - - - - - - 29.98 -
21:20 57
-
- 7.8 8.9 - - - - - -
-
-
21:30 58 56 77 WNW 9.7 11.2 - - - - - - 29.99 -
21:40 58 56 76 WNW 11.7 13.4 - - - - - - 29.99 -
21:50 58 56 72 NW 13.6 15.7 5 1.97 exactly 2.0 5 1.64 0.82 - 2.46 - - - 29.99 -
22:10 58 56 74 NW 13.6 15.7 - - - - - - 29.98 -
22:20 58 56 73 NW 13.6 15.7 - - - - - - 29.99 -
22:30 58 56 71 NW 13.6 15.7 - - - - - - 29.99 -
22:40 58 56 73 NW 13.6 15.7 - - - - - - 29.99 -
22:50 58 56 74 NW 11.7 13.4 5 2.30 exactly 2.3 5 1.64 0.82 - 2.46 - - - 29.99 -
23:00 56
-
- 11.7 13.4 - - - - - -
-
-
23:20 58 56 75 NNW 11.7 13.4 - - - - - - 29.99 -
23:30 58 56 75 NNW 9.7 11.2 - - - - - - 30.00 -
23:50 56
-
- 11.7 13.4 5 2.62 exactly 2.6 5 1.64 0.82 - 2.46 6 1.64 0.82 - 2.46
-
-
00:10 56
-
- 9.7 11.2 - - - - - -
-
-
00:20 56
-
- 7.8 8.9 - - - - - -
-
-
00:30 57 56 78 NNW 7.8 8.9 - - - - - - 30.01 -
00:50 57 55 75 NNW 9.7 11.2 6 2.95 exactly 3.0 4 1.64 0.82 - 2.46 6 3.28 2.46 - 4.10 30.01 -
01:10 55
-
- 7.8 8.9 - - - - - -
-
-
01:20 55
-
- 9.7 11.2 - - - - - -
-
-
01:30 57
-
72 NNW 9.7 11.2 - - - - - - 30.01 -
01:50 55
-
- 5.8 6.7 5 2.95 exactly 3.0 3 1.64 0.82 - 2.46 5 3.28 2.46 - 4.10
-
-
02:10 56 55 86 NW 7.8 8.9 - - - - - - 30.02 -
02:30 57
-
78 NNW 7.8 8.9 - - - - - - 30.02 -
02:40 55
-
- 7.8 8.9 - - - - - -
-
-
03:30 56
-
81 NNW 7.8 8.9 - - - - - - 30.03 -
03:40 56
-
81 NW 7.8 8.9 - - - - - - 30.04 -

Detailed Wave Spectra

Time Water Depth Wave Height Spectral Peak Period Average Wave Period Sampling Interval Wave Record
00:00 781 ft 0.92 ft 4.5 sec 3.4 sec 0.6 sec 2400 sec
02:00 781 ft 0.92 ft 4.8 sec 3.2 sec 0.6 sec 2400 sec
03:00 781 ft 0.82 ft 4.8 sec 3.4 sec 0.6 sec 2400 sec
06:00 781 ft 0.59 ft 3.3 sec 0.6 sec 2400 sec
07:00 781 ft 0.66 ft 3.0 sec 0.6 sec 2400 sec
11:00 781 ft 0.82 ft 2.7 sec 0.6 sec 2400 sec
12:00 781 ft 0.75 ft 2.7 sec 0.6 sec 2400 sec
17:00 781 ft 1.74 ft 4.2 sec 3.2 sec 0.6 sec 2400 sec
18:00 781 ft 2.10 ft 4.2 sec 3.4 sec 0.6 sec 2400 sec
19:00 781 ft 1.97 ft 3.7 sec 3.4 sec 0.6 sec 2400 sec
21:00 781 ft 1.90 ft 4.8 sec 3.7 sec 0.6 sec 2400 sec
00:00 781 ft 2.79 ft 4.8 sec 4.2 sec 0.6 sec 2400 sec
01:00 781 ft 2.92 ft 5.9 sec 4.2 sec 0.6 sec 2400 sec
02:00 781 ft 2.89 ft 5.3 sec 4.3 sec 0.6 sec 2400 sec
03:00 781 ft 2.79 ft 5.6 sec 4.1 sec 0.6 sec 2400 sec